Time;durP1;ratioP1;P1;durP2;ratioP2;P2;SDS_P1;SDS_P2;PMS_P1;PMS_P2;Temp;Humidity;BMP_temperature;BMP_pressure;BME280_temperature;BME280_humidity;BME280_pressure;Samples;Min_cycle;Max_cycle;Signal;HPM_P1;HPM_P2
2023/01/08 00:02:50;;;;;;;4.63;3.40;;;9.50;99.90;;;;;;6102117;23;20215;-76
2023/01/08 00:05:25;;;;;;;4.75;2.97;;;9.50;99.90;;;;;;6196617;23;20021;-77
2023/01/08 00:07:50;;;;;;;4.43;3.88;;;9.50;99.90;;;;;;6193821;23;20127;-77
2023/01/08 00:10:16;;;;;;;4.18;2.88;;;9.60;99.90;;;;;;6192911;23;20039;-76
2023/01/08 00:13:02;;;;;;;3.22;2.70;;;9.60;99.90;;;;;;6167578;23;20040;-76
2023/01/08 00:15:29;;;;;;;4.95;3.15;;;9.60;99.90;;;;;;6172114;23;20009;-77
2023/01/08 00:17:55;;;;;;;4.63;2.80;;;9.60;99.90;;;;;;6167694;23;20059;-77
2023/01/08 00:20:21;;;;;;;4.50;3.20;;;9.50;99.90;;;;;;6191451;23;20267;-77
2023/01/08 00:22:48;;;;;;;3.40;3.10;;;9.60;99.90;;;;;;6218204;23;20020;-77
2023/01/08 00:25:14;;;;;;;3.92;2.63;;;9.60;99.90;;;;;;6193336;23;20024;-77
2023/01/08 00:39:24;;;;;;;6.72;3.22;;;9.60;99.90;;;;;;5956394;23;20249;-80
2023/01/08 00:42:59;;;;;;;4.35;3.30;;;9.60;99.90;;;;;;6104114;23;20017;-79
2023/01/08 00:45:45;;;;;;;3.70;3.03;;;9.80;99.90;;;;;;6103591;23;20010;-79
2023/01/08 00:48:32;;;;;;;4.43;3.05;;;10.20;99.90;;;;;;6104835;23;20347;-78
2023/01/08 00:51:03;;;;;;;3.33;2.60;;;9.70;99.90;;;;;;6080100;23;20021;-77
2023/01/08 00:57:39;;;;;;;4.45;3.58;;;9.00;99.90;;;;;;6113029;23;20021;-78
2023/01/08 01:00:27;;;;;;;4.18;3.22;;;9.50;99.90;;;;;;6095131;23;20319;-78
2023/01/08 01:03:31;;;;;;;4.88;3.20;;;9.60;99.90;;;;;;6190755;23;20223;-77
2023/01/08 01:06:08;;;;;;;4.13;3.17;;;9.60;99.90;;;;;;6169675;23;20210;-79
2023/01/08 01:09:56;;;;;;;3.10;2.80;;;10.70;99.90;;;;;;6191641;23;20025;-79
2023/01/08 01:12:30;;;;;;;3.00;2.42;;;8.70;99.90;;;;;;6078703;23;20034;-78
2023/01/08 01:15:20;;;;;;;5.72;2.70;;;9.30;99.90;;;;;;6104229;23;20097;-78
2023/01/08 01:17:48;;;;;;;7.43;2.28;;;9.40;99.90;;;;;;6080781;23;20026;-78
2023/01/08 01:20:16;;;;;;;5.28;3.10;;;9.30;99.90;;;;;;6069036;23;20151;-76
2023/01/08 01:22:49;;;;;;;3.22;2.60;;;9.30;99.90;;;;;;6044652;23;20010;-78
2023/01/08 01:25:20;;;;;;;4.75;2.83;;;9.50;99.90;;;;;;6021143;23;20071;-78
2023/01/08 01:28:07;;;;;;;9.25;3.28;;;8.10;99.90;;;;;;6045037;23;20023;-78
2023/01/08 01:30:35;;;;;;;5.95;2.63;;;9.40;99.90;;;;;;6044276;23;20082;-79
2023/01/08 01:36:14;;;;;;;4.40;2.42;;;8.20;99.90;;;;;;5993121;23;20023;-79
2023/01/08 01:38:50;;;;;;;3.92;2.60;;;9.50;99.90;;;;;;5969152;23;20018;-78
2023/01/08 01:41:28;;;;;;;2.88;2.50;;;9.40;99.90;;;;;;5992848;23;20012;-78
2023/01/08 01:43:57;;;;;;;3.58;2.80;;;9.50;99.90;;;;;;5972748;23;20027;-79
2023/01/08 01:46:31;;;;;;;5.22;2.90;;;9.50;99.90;;;;;;5992959;23;20020;-79
2023/01/08 01:49:09;;;;;;;3.92;2.63;;;9.50;99.90;;;;;;5968410;23;20317;-80
2023/01/08 01:51:37;;;;;;;3.15;2.63;;;9.30;99.90;;;;;;6028889;23;20246;-79
2023/01/08 01:54:09;;;;;;;3.15;2.80;;;9.50;99.90;;;;;;6024665;23;20078;-79
2023/01/08 01:56:35;;;;;;;4.60;2.67;;;9.50;99.90;;;;;;6047768;23;20011;-80
2023/01/08 01:59:01;;;;;;;4.43;3.00;;;9.50;99.90;;;;;;6046938;23;20050;-80
2023/01/08 02:01:27;;;;;;;4.20;2.65;;;9.50;99.90;;;;;;6024261;23;20089;-79
2023/01/08 02:04:12;;;;;;;;;;;;;;;;;;;;;
2023/01/08 02:07:10;;;;;;;4.45;2.90;;;9.50;99.90;;;;;;6090747;23;20220;-80
2023/01/08 02:10:03;;;;;;;3.38;2.40;;;9.50;99.90;;;;;;6194508;23;20592;-80
2023/01/08 02:12:38;;;;;;;4.25;2.55;;;9.40;99.90;;;;;;6219171;23;20016;-79
2023/01/08 02:15:10;;;;;;;3.08;2.55;;;9.40;99.90;;;;;;6194739;23;20024;-79
2023/01/08 02:17:58;;;;;;;4.10;2.60;;;9.30;99.90;;;;;;6220607;23;20024;-79
2023/01/08 02:20:40;;;;;;;6.32;2.60;;;9.30;99.90;;;;;;6220103;23;20005;-78
2023/01/08 02:23:24;;;;;;;4.75;2.55;;;9.30;99.90;;;;;;6220990;23;20426;-80
2023/01/08 02:29:17;;;;;;;3.85;1.98;;;9.90;99.90;;;;;;6219611;23;20291;-78
2023/01/08 02:31:44;;;;;;;3.65;1.88;;;9.20;99.90;;;;;;6218262;23;20080;-78
2023/01/08 02:34:11;;;;;;;4.25;1.88;;;9.20;99.90;;;;;;6193044;23;20012;-78
2023/01/08 02:37:25;;;;;;;5.90;1.55;;;9.20;99.90;;;;;;6194179;23;20005;-78
2023/01/08 02:40:51;;;;;;;;;;;;;;;;;;;;;
2023/01/08 02:44:10;;;;;;;6.25;2.00;;;9.00;99.90;;;;;;6220819;23;20122;-79
2023/01/08 02:50:40;;;;;;;5.20;1.38;;;9.00;99.90;;;;;;6218716;23;20047;-79
2023/01/08 02:53:48;;;;;;;9.10;1.90;;;8.80;99.90;;;;;;6170181;23;20063;-80
2023/01/08 02:56:39;;;;;;;6.15;1.30;;;8.80;99.90;;;;;;6202739;23;20303;-78
2023/01/08 02:59:09;;;;;;;8.00;2.30;;;7.40;99.90;;;;;;6192386;23;20353;-79
2023/01/08 03:02:05;;;;;;;6.90;1.50;;;8.80;99.90;;;;;;6168109;23;20013;-79
2023/01/08 03:04:38;;;;;;;6.75;1.70;;;8.40;99.90;;;;;;6184068;23;20012;-79
2023/01/08 03:07:07;;;;;;;8.50;1.95;;;8.70;99.90;;;;;;6167037;23;20040;-78
2023/01/08 03:09:34;;;;;;;8.25;1.75;;;8.70;99.90;;;;;;6168102;23;20016;-78
2023/01/08 03:12:10;;;;;;;11.25;1.80;;;8.70;99.90;;;;;;6189656;23;20203;-78
2023/01/08 03:14:42;;;;;;;6.50;1.80;;;8.70;99.90;;;;;;6193886;23;20016;-79
2023/01/08 03:17:28;;;;;;;6.15;1.60;;;8.70;99.90;;;;;;6195036;23;20009;-79
2023/01/08 03:19:55;;;;;;;;;;;8.60;99.90;;;;;;6195417;23;20020;-79
2023/01/08 03:22:22;;;;;;;10.20;2.13;;;8.60;99.90;;;;;;6194740;23;19935;-80
2023/01/08 03:24:52;;;;;;;5.95;2.35;;;8.60;99.90;;;;;;6193426;23;20012;-79
2023/01/08 03:27:49;;;;;;;5.82;2.17;;;8.50;99.90;;;;;;6193240;23;20021;-78
2023/01/08 03:38:46;;;;;;;5.03;1.77;;;7.50;99.90;;;;;;6039084;23;20023;-78
2023/01/08 03:41:28;;;;;;;7.97;1.77;;;8.60;99.90;;;;;;6089230;23;20081;-77
2023/01/08 03:44:08;;;;;;;7.60;1.95;;;8.60;99.90;;;;;;6179002;23;20311;-79
2023/01/08 03:46:50;;;;;;;6.53;1.60;;;10.40;99.90;;;;;;6194907;23;20215;-80
2023/01/08 03:49:45;;;;;;;4.35;1.35;;;8.30;99.90;;;;;;6195354;23;20025;-81
2023/01/08 03:56:56;;;;;;;4.30;1.40;;;7.50;99.90;;;;;;6194059;23;20021;-78
2023/01/08 04:00:00;;;;;;;;;;;;;;;;;;;;;
2023/01/08 04:02:44;;;;;;;6.50;1.73;;;8.00;99.90;;;;;;6137483;23;20018;-78
2023/01/08 04:05:12;;;;;;;4.38;2.00;;;8.20;99.90;;;;;;6218251;23;20168;-77
2023/01/08 04:07:45;;;;;;;5.53;1.70;;;8.20;99.90;;;;;;6218946;23;20227;-78
2023/01/08 04:10:14;;;;;;;7.72;2.10;;;8.30;99.90;;;;;;6169995;23;20025;-78
2023/01/08 04:12:50;;;;;;;6.47;1.98;;;8.80;99.90;;;;;;6143535;23;20017;-77
2023/01/08 04:15:17;;;;;;;7.07;1.90;;;6.50;99.90;;;;;;6169605;23;20055;-77
2023/01/08 04:17:42;;;;;;;5.05;1.80;;;8.20;99.90;;;;;;6217757;23;20364;-77
2023/01/08 04:20:34;;;;;;;3.42;1.80;;;8.20;99.90;;;;;;6194181;23;20013;-78
2023/01/08 04:23:04;;;;;;;5.93;1.77;;;7.10;99.90;;;;;;6218385;23;20055;-77
2023/01/08 04:29:04;;;;;;;7.53;2.30;;;8.30;99.90;;;;;;6219649;23;20340;-77
2023/01/08 04:32:05;;;;;;;5.53;1.95;;;8.20;99.90;;;;;;6194378;23;20036;-77
2023/01/08 04:35:00;;;;;;;4.82;1.95;;;6.60;99.90;;;;;;6176186;23;20015;-77
2023/01/08 04:37:39;;;;;;;5.68;1.80;;;7.10;99.90;;;;;;6168638;23;20316;-78
2023/01/08 04:40:22;;;;;;;5.78;2.42;;;8.30;99.90;;;;;;6191276;23;20070;-78
2023/01/08 04:42:47;;;;;;;6.78;2.17;;;7.60;99.90;;;;;;6193509;23;20072;-79
2023/01/08 04:52:18;;;;;;;6.70;2.38;;;7.30;99.90;;;;;;6187766;23;20338;-77
2023/01/08 04:54:44;;;;;;;6.13;2.65;;;8.40;99.90;;;;;;6193629;23;20036;-78
2023/01/08 04:57:13;;;;;;;5.32;2.33;;;8.70;99.90;;;;;;6192873;23;20023;-78
2023/01/08 04:59:44;;;;;;;7.05;2.72;;;10.50;99.90;;;;;;6189122;23;20020;-78
2023/01/08 05:02:18;;;;;;;5.95;2.63;;;9.20;99.90;;;;;;6170491;23;20013;-78
2023/01/08 05:08:52;;;;;;;;;;;;;;;;;;;;;
2023/01/08 05:11:47;;;;;;;3.58;2.33;;;8.80;99.90;;;;;;6202960;23;20491;-78
2023/01/08 05:14:43;;;;;;;4.50;2.50;;;8.40;99.90;;;;;;6221356;23;20074;-79
2023/01/08 05:26:44;;;;;;;;;;;;;;;;;;;;;
2023/01/08 05:30:14;;;;;;;;;;;;;;;;;;;;;
2023/01/08 05:34:02;;;;;;;7.10;2.85;;;8.10;99.90;;;;;;6041678;23;20038;-78
2023/01/08 05:41:13;;;;;;;3.40;2.53;;;7.80;99.90;;;;;;5904054;24;20155;-78
2023/01/08 05:44:32;;;;;;;4.28;2.33;;;8.40;99.90;;;;;;5980318;23;20191;-78
2023/01/08 05:54:23;;;;;;;3.72;2.28;;;8.80;99.90;;;;;;5949607;23;20025;-78
2023/01/08 06:04:12;;;;;;;4.47;2.30;;;8.80;99.90;;;;;;6108661;23;20032;-80
2023/01/08 06:06:46;;;;;;;3.75;1.92;;;8.50;99.90;;;;;;6084925;23;20214;-79
2023/01/08 06:13:08;;;;;;;3.50;1.90;;;9.30;99.90;;;;;;6194168;23;20028;-77
2023/01/08 06:15:34;;;;;;;4.25;1.95;;;8.60;99.90;;;;;;6169937;23;20016;-78
2023/01/08 06:18:03;;;;;;;4.50;1.92;;;8.50;99.90;;;;;;6195435;23;20038;-79
2023/01/08 06:20:29;;;;;;;2.95;1.77;;;8.50;99.90;;;;;;6197286;23;20012;-79
2023/01/08 06:22:55;;;;;;;6.53;2.13;;;8.60;99.90;;;;;;6194986;23;20070;-79
2023/01/08 06:25:21;;;;;;;6.13;1.77;;;8.50;99.90;;;;;;6195283;23;20068;-79
2023/01/08 06:27:53;;;;;;;3.08;2.00;;;8.50;99.90;;;;;;6193823;23;20075;-79
2023/01/08 06:30:50;;;;;;;3.88;1.98;;;8.60;99.90;;;;;;6195090;23;20009;-79
2023/01/08 06:33:32;;;;;;;7.57;2.30;;;8.60;99.90;;;;;;6219807;23;20016;-78
2023/01/08 06:36:03;;;;;;;4.53;2.03;;;8.60;99.90;;;;;;6193321;23;20203;-78
2023/01/08 06:38:33;;;;;;;3.75;2.20;;;8.70;99.90;;;;;;6195432;23;20270;-78
2023/01/08 06:41:09;;;;;;;2.78;2.00;;;8.70;99.90;;;;;;6194707;23;20080;-78
2023/01/08 06:43:38;;;;;;;7.65;3.55;;;8.70;99.90;;;;;;6218326;23;20072;-80
2023/01/08 06:46:08;;;;;;;5.38;2.85;;;8.20;99.90;;;;;;6192809;23;20020;-79
2023/01/08 06:48:41;;;;;;;6.65;2.78;;;8.70;99.90;;;;;;6107916;23;20041;-80
2023/01/08 06:51:09;;;;;;;5.30;2.80;;;8.60;99.90;;;;;;6085535;23;20048;-76
2023/01/08 06:53:35;;;;;;;6.30;2.80;;;8.70;99.90;;;;;;6134042;23;20045;-77
2023/01/08 06:59:37;;;;;;;4.78;2.78;;;8.70;99.90;;;;;;6091679;23;20256;-79
2023/01/08 07:02:03;;;;;;;4.60;2.60;;;8.60;99.90;;;;;;6110207;23;20009;-80
2023/01/08 07:05:07;;;;;;;6.93;2.67;;;8.40;99.90;;;;;;6109186;23;20024;-78
2023/01/08 07:15:29;;;;;;;6.50;2.92;;;8.30;99.90;;;;;;6011501;23;20022;-79
2023/01/08 07:18:04;;;;;;;;;;;8.40;99.90;;;;;;6076926;23;20022;-79
2023/01/08 07:20:31;;;;;;;3.78;2.42;;;8.30;99.90;;;;;;6127860;23;19951;-79
2023/01/08 07:23:04;;;;;;;4.60;2.78;;;7.50;99.90;;;;;;6137361;23;20021;-79
2023/01/08 07:25:32;;;;;;;6.22;2.88;;;8.20;99.90;;;;;;6136477;23;20020;-79
2023/01/08 07:28:02;;;;;;;5.80;2.50;;;7.20;99.90;;;;;;6110622;23;20145;-78
2023/01/08 07:30:30;;;;;;;4.65;3.15;;;8.30;99.90;;;;;;6090100;23;20169;-78
2023/01/08 07:33:02;;;;;;;6.75;3.00;;;8.20;99.90;;;;;;6169283;23;20144;-77
2023/01/08 07:35:28;;;;;;;3.38;2.50;;;8.10;99.90;;;;;;6196021;23;20063;-78
2023/01/08 07:37:54;;;;;;;6.68;2.42;;;7.70;99.90;;;;;;6170230;23;20138;-78
2023/01/08 07:40:20;;;;;;;3.25;2.25;;;8.20;99.90;;;;;;6195854;23;20013;-76
2023/01/08 07:42:46;;;;;;;5.97;2.55;;;8.10;99.90;;;;;;6169570;23;20040;-77
2023/01/08 07:45:11;;;;;;;4.22;2.70;;;8.10;99.90;;;;;;6171069;23;20023;-78
2023/01/08 07:47:37;;;;;;;6.45;2.50;;;8.10;99.90;;;;;;6170871;23;20541;-77
2023/01/08 07:50:03;;;;;;;4.65;2.38;;;8.00;99.90;;;;;;6171405;23;20012;-78
2023/01/08 07:52:29;;;;;;;4.80;2.75;;;8.00;99.90;;;;;;6146128;23;20008;-75
2023/01/08 07:54:54;;;;;;;6.95;3.10;;;8.00;99.90;;;;;;6121050;23;20016;-77
2023/01/08 08:04:44;;;;;;;5.18;2.60;;;6.70;99.90;;;;;;5999455;23;20049;-77
2023/01/08 08:07:44;;;;;;;7.97;2.75;;;8.30;99.90;;;;;;6017890;23;20411;-78
2023/01/08 08:10:33;;;;;;;7.63;2.45;;;8.30;99.90;;;;;;6043195;23;20024;-78
2023/01/08 08:13:09;;;;;;;4.78;2.75;;;8.00;99.90;;;;;;6196698;23;20096;-75
2023/01/08 08:15:36;;;;;;;6.63;2.50;;;8.10;99.90;;;;;;6194755;23;20080;-76
2023/01/08 08:18:02;;;;;;;4.35;2.47;;;10.20;99.90;;;;;;6168593;23;20015;-75
2023/01/08 08:20:31;;;;;;;5.43;2.63;;;8.00;99.90;;;;;;6194949;23;20295;-76
2023/01/08 08:23:09;;;;;;;5.97;2.63;;;8.00;99.90;;;;;;6193196;23;20019;-76
2023/01/08 08:25:37;;;;;;;6.28;2.60;;;8.00;99.90;;;;;;6219421;23;20206;-74
2023/01/08 08:28:03;;;;;;;7.53;3.00;;;7.90;99.90;;;;;;6192813;23;20342;-74
2023/01/08 08:30:32;;;;;;;6.15;2.95;;;7.80;99.90;;;;;;6194717;23;20009;-76
2023/01/08 08:33:00;;;;;;;6.30;2.83;;;7.90;99.90;;;;;;6193630;23;20064;-76
2023/01/08 08:35:26;;;;;;;6.20;3.05;;;7.80;99.90;;;;;;6220062;23;20208;-76
2023/01/08 08:37:57;;;;;;;5.40;2.63;;;7.80;99.90;;;;;;6218935;23;20009;-76
2023/01/08 08:40:23;;;;;;;3.83;2.53;;;7.90;99.90;;;;;;6219976;23;20303;-73
2023/01/08 08:42:58;;;;;;;4.03;2.63;;;8.00;99.90;;;;;;6193904;23;20016;-74
2023/01/08 08:45:24;;;;;;;5.90;3.50;;;8.10;99.90;;;;;;6219832;23;20020;-75
2023/01/08 08:47:50;;;;;;;5.80;2.30;;;8.30;99.90;;;;;;6145061;23;20173;-75
2023/01/08 08:50:16;;;;;;;3.58;2.15;;;8.20;99.90;;;;;;6170475;23;20036;-75
2023/01/08 08:52:43;;;;;;;7.13;2.50;;;8.20;99.90;;;;;;6220087;23;20017;-75
2023/01/08 08:55:13;;;;;;;6.22;2.40;;;8.20;99.90;;;;;;6194681;23;20020;-75
2023/01/08 08:57:39;;;;;;;5.43;2.35;;;8.20;99.90;;;;;;6217525;23;20016;-75
2023/01/08 09:00:06;;;;;;;10.27;2.70;;;8.20;99.90;;;;;;6193470;23;20013;-75
2023/01/08 09:02:31;;;;;;;9.35;2.50;;;8.20;99.90;;;;;;6218602;23;20012;-75
2023/01/08 09:04:57;;;;;;;4.53;2.05;;;8.10;99.90;;;;;;6193269;23;20013;-75
2023/01/08 09:07:23;;;;;;;8.18;2.67;;;8.10;99.90;;;;;;6168402;23;20015;-75
2023/01/08 09:09:48;;;;;;;5.05;2.25;;;8.10;99.90;;;;;;6192843;23;20238;-75
2023/01/08 09:12:14;;;;;;;7.60;2.70;;;8.10;99.90;;;;;;6219707;23;20021;-75
2023/01/08 09:14:40;;;;;;;6.43;2.08;;;8.20;99.90;;;;;;6194591;23;20452;-74
2023/01/08 09:17:05;;;;;;;5.50;2.53;;;8.20;99.90;;;;;;6218086;23;20009;-74
2023/01/08 09:19:44;;;;;;;5.85;1.98;;;8.30;99.90;;;;;;6194284;23;20055;-76
2023/01/08 09:22:22;;;;;;;9.57;2.15;;;8.40;99.90;;;;;;6142849;23;20323;-75
2023/01/08 09:24:47;;;;;;;4.90;2.25;;;8.40;99.90;;;;;;6162346;23;20012;-74
2023/01/08 09:27:13;;;;;;;7.15;2.40;;;8.50;99.90;;;;;;6162370;23;20072;-76
2023/01/08 09:30:17;;;;;;;9.25;2.90;;;8.60;99.90;;;;;;6089862;23;20048;-75
2023/01/08 09:32:42;;;;;;;7.10;2.33;;;9.20;99.90;;;;;;6162953;23;20220;-75
2023/01/08 09:35:18;;;;;;;;;;;;;;;;;;;;;
2023/01/08 09:38:12;;;;;;;4.22;1.63;;;9.50;99.90;;;;;;6109397;23;20299;-75
2023/01/08 09:41:03;;;;;;;7.65;1.95;;;9.50;99.90;;;;;;6135685;23;20115;-74
2023/01/08 09:43:37;;;;;;;10.20;2.33;;;9.60;99.90;;;;;;6161906;23;20013;-75
2023/01/08 09:46:05;;;;;;;3.97;1.88;;;10.10;99.90;;;;;;6144679;23;20013;-74
2023/01/08 09:48:35;;;;;;;10.32;2.58;;;10.20;99.90;;;;;;6218194;23;20066;-74
2023/01/08 09:51:35;;;;;;;3.38;1.70;;;10.40;99.90;;;;;;6217598;23;20013;-74
2023/01/08 09:54:01;;;;;;;6.03;1.95;;;10.20;99.90;;;;;;6211309;23;20017;-75
2023/01/08 09:56:28;;;;;;;6.20;1.92;;;10.50;99.90;;;;;;6217802;23;20013;-74
2023/01/08 09:58:58;;;;;;;6.88;1.92;;;10.50;99.90;;;;;;6218431;23;20008;-75
2023/01/08 10:01:27;;;;;;;5.43;1.88;;;10.70;99.90;;;;;;6194632;23;20173;-75
2023/01/08 10:04:43;;;;;;;8.80;2.45;;;11.00;99.90;;;;;;6220096;23;20012;-75
2023/01/08 10:07:17;;;;;;;4.53;1.83;;;10.60;99.90;;;;;;6157789;23;20360;-76
2023/01/08 10:09:42;;;;;;;4.07;1.67;;;10.80;99.90;;;;;;6220236;23;20013;-74
2023/01/08 10:12:11;;;;;;;5.45;1.77;;;10.60;99.90;;;;;;6194131;23;20378;-74
2023/01/08 10:14:46;;;;;;;7.88;1.90;;;10.70;99.90;;;;;;6195326;23;20035;-76
2023/01/08 10:17:30;;;;;;;7.50;1.70;;;10.80;99.90;;;;;;6194133;23;20050;-74
2023/01/08 10:19:58;;;;;;;6.90;1.60;;;10.70;99.90;;;;;;6219777;23;20020;-73
2023/01/08 10:22:30;;;;;;;6.15;2.08;;;10.70;99.90;;;;;;6170097;23;20013;-74
2023/01/08 10:25:15;;;;;;;4.53;1.67;;;10.80;99.90;;;;;;6220034;23;20020;-74
2023/01/08 10:28:04;;;;;;;5.63;1.60;;;10.80;99.90;;;;;;6219361;23;20021;-73
2023/01/08 10:30:30;;;;;;;5.18;1.70;;;10.70;99.90;;;;;;6195144;23;20021;-73
2023/01/08 10:33:02;;;;;;;4.47;1.60;;;10.60;99.90;;;;;;6220065;23;20008;-73
2023/01/08 10:35:34;;;;;;;7.10;1.67;;;10.50;99.90;;;;;;6195603;23;20072;-73
2023/01/08 10:38:34;;;;;;;8.23;1.95;;;10.70;99.90;;;;;;6219314;23;20070;-74
2023/01/08 10:41:03;;;;;;;6.35;1.77;;;11.00;99.90;;;;;;6220282;23;20012;-75
2023/01/08 10:43:43;;;;;;;6.80;1.88;;;11.30;99.90;;;;;;6220094;23;20203;-74
2023/01/08 10:49:44;;;;;;;6.10;1.80;;;11.20;99.90;;;;;;6213153;23;20311;-75
2023/01/08 10:52:35;;;;;;;8.73;2.03;;;11.30;99.90;;;;;;6219856;23;20020;-76
2023/01/08 10:55:38;;;;;;;5.60;1.30;;;11.30;99.90;;;;;;6194033;23;20215;-76
2023/01/08 10:58:13;;;;;;;6.32;1.95;;;11.40;99.90;;;;;;6172728;23;20044;-77
2023/01/08 11:00:39;;;;;;;5.18;2.10;;;10.90;99.90;;;;;;6194219;23;20303;-76
2023/01/08 11:03:07;;;;;;;6.60;1.80;;;10.90;99.90;;;;;;6218584;23;20016;-76
2023/01/08 11:05:41;;;;;;;7.72;2.20;;;10.80;99.90;;;;;;6220075;23;20027;-77
2023/01/08 11:08:26;;;;;;;5.10;1.80;;;10.90;99.90;;;;;;6169281;23;20012;-77
2023/01/08 11:10:57;;;;;;;6.07;2.10;;;10.70;99.90;;;;;;6194232;23;20180;-77
2023/01/08 11:13:23;;;;;;;8.48;1.80;;;10.80;99.90;;;;;;6219575;23;20083;-77
2023/01/08 11:16:09;;;;;;;6.38;1.65;;;10.60;99.90;;;;;;6194684;23;20012;-77
2023/01/08 11:19:18;;;;;;;7.25;1.85;;;10.70;99.90;;;;;;6168805;23;20043;-77
2023/01/08 11:22:05;;;;;;;6.28;2.15;;;11.60;99.90;;;;;;6195908;23;20021;-77
2023/01/08 11:24:42;;;;;;;7.82;1.95;;;10.20;99.90;;;;;;6193409;23;20207;-76
2023/01/08 11:35:35;;;;;;;2.92;1.52;;;11.30;99.90;;;;;;6079220;23;20186;-76
2023/01/08 11:50:18;;;;;;;5.38;1.60;;;10.30;99.90;;;;;;6095997;23;20021;-75
2023/01/08 11:53:00;;;;;;;8.38;2.30;;;10.00;99.90;;;;;;6151253;23;20063;-76
2023/01/08 11:55:34;;;;;;;7.05;1.95;;;10.20;99.90;;;;;;6218706;23;20059;-76
2023/01/08 12:02:27;;;;;;;9.38;2.03;;;9.70;99.90;;;;;;6220357;23;20059;-77
2023/01/08 12:05:08;;;;;;;10.07;2.10;;;9.80;99.90;;;;;;6192848;23;20017;-76
2023/01/08 12:07:43;;;;;;;7.65;2.33;;;10.40;99.90;;;;;;6194858;23;20016;-76
2023/01/08 12:10:46;;;;;;;8.35;2.80;;;10.40;99.90;;;;;;6193013;23;20040;-77
2023/01/08 12:13:24;;;;;;;7.68;3.15;;;10.40;99.90;;;;;;6192934;23;20024;-77
2023/01/08 12:16:19;;;;;;;9.45;4.07;;;10.00;99.90;;;;;;6218601;23;20085;-77
2023/01/08 12:19:08;;;;;;;9.10;3.05;;;10.40;99.90;;;;;;6219734;23;20016;-77
2023/01/08 12:21:47;;;;;;;6.82;1.95;;;9.90;99.90;;;;;;6194162;23;20250;-76
2023/01/08 12:24:38;;;;;;;10.27;2.70;;;9.90;99.90;;;;;;6218552;23;20017;-76
2023/01/08 12:27:38;;;;;;;5.53;2.00;;;9.60;99.90;;;;;;6192609;23;20012;-76
2023/01/08 12:30:23;;;;;;;9.02;2.38;;;9.60;99.90;;;;;;6193616;23;20107;-75
2023/01/08 12:32:55;;;;;;;7.40;2.10;;;9.70;99.90;;;;;;6194084;23;20058;-76
2023/01/08 12:35:26;;;;;;;7.82;2.63;;;9.60;99.90;;;;;;6219482;23;20264;-76
2023/01/08 12:38:10;;;;;;;5.90;1.80;;;9.60;99.90;;;;;;6193502;23;20016;-76
2023/01/08 12:40:43;;;;;;;6.47;2.15;;;9.50;99.90;;;;;;6194447;23;20181;-76
2023/01/08 12:43:21;;;;;;;11.15;2.53;;;9.50;99.90;;;;;;6218105;23;20047;-76
2023/01/08 12:45:52;;;;;;;9.90;3.33;;;9.40;99.90;;;;;;6219406;23;20055;-76
2023/01/08 12:48:22;;;;;;;8.10;2.40;;;9.50;99.90;;;;;;6218147;23;20078;-78
2023/01/08 12:50:56;;;;;;;6.72;2.38;;;9.50;99.90;;;;;;6219048;23;20024;-77
2023/01/08 12:53:31;;;;;;;7.20;2.83;;;9.40;99.90;;;;;;6193848;23;20028;-77
2023/01/08 12:56:25;;;;;;;8.60;3.15;;;9.40;99.90;;;;;;6221718;23;20009;-77
2023/01/08 12:58:57;;;;;;;8.70;2.60;;;9.30;99.90;;;;;;6194371;23;20012;-78
2023/01/08 13:01:39;;;;;;;8.40;2.72;;;9.40;99.90;;;;;;6218946;23;20411;-76
2023/01/08 13:08:23;;;;;;;8.25;2.83;;;9.50;99.90;;;;;;6087565;23;20044;-77
2023/01/08 13:10:52;;;;;;;9.15;2.65;;;9.40;99.90;;;;;;6074389;23;20039;-78
2023/01/08 13:13:29;;;;;;;7.50;1.70;;;8.90;99.90;;;;;;6074216;23;20054;-77
2023/01/08 13:16:13;;;;;;;9.63;3.20;;;9.50;99.90;;;;;;6051405;23;20035;-75
2023/01/08 13:18:39;;;;;;;9.40;2.33;;;9.50;99.90;;;;;;6157045;23;20016;-76
2023/01/08 13:21:08;;;;;;;8.85;2.58;;;9.40;99.90;;;;;;6193231;23;20063;-78
2023/01/08 13:23:35;;;;;;;6.65;1.95;;;9.40;99.90;;;;;;6193304;23;20012;-77
2023/01/08 13:26:05;;;;;;;5.80;2.35;;;9.40;99.90;;;;;;6217026;23;20055;-77
2023/01/08 13:28:34;;;;;;;7.10;1.90;;;9.40;99.90;;;;;;6194256;23;20021;-76
2023/01/08 13:31:09;;;;;;;5.68;2.00;;;9.40;99.90;;;;;;6193477;23;20020;-75
2023/01/08 13:33:40;;;;;;;8.55;3.03;;;9.30;99.90;;;;;;6170671;23;20009;-76
2023/01/08 13:36:15;;;;;;;6.88;2.33;;;9.50;99.90;;;;;;6219389;23;20066;-76
2023/01/08 13:38:41;;;;;;;9.82;2.00;;;9.40;99.90;;;;;;6219236;23;20043;-77
2023/01/08 13:41:26;;;;;;;7.40;2.03;;;9.40;99.90;;;;;;6195561;23;20067;-78
2023/01/08 13:44:05;;;;;;;7.20;1.90;;;9.40;99.90;;;;;;6220848;23;20119;-77
2023/01/08 13:46:34;;;;;;;7.97;1.73;;;9.40;99.90;;;;;;6219481;23;20017;-78
2023/01/08 13:49:04;;;;;;;6.85;1.70;;;9.40;99.90;;;;;;6195414;23;20063;-78
2023/01/08 13:51:50;;;;;;;7.43;2.20;;;9.50;99.90;;;;;;6195262;23;20020;-78
2023/01/08 13:54:28;;;;;;;7.90;2.03;;;9.40;99.90;;;;;;6219330;23;20036;-78
2023/01/08 13:57:22;;;;;;;9.65;2.20;;;9.40;99.90;;;;;;6220266;23;20326;-77
2023/01/08 14:04:14;;;;;;;;;;;;;;;;;;;;;
2023/01/08 14:07:39;;;;;;;6.75;2.53;;;10.70;99.90;;;;;;6156732;23;20012;-76
2023/01/08 14:11:15;;;;;;;;;;;;;;;;;;;;;
2023/01/08 14:18:59;;;;;;;6.72;2.03;;;9.50;99.90;;;;;;6155287;23;20133;-77
2023/01/08 14:21:34;;;;;;;6.95;2.05;;;9.90;99.90;;;;;;6078108;23;20017;-76
2023/01/08 14:43:01;;;;;;;6.70;1.90;;;10.40;99.90;;;;;;6015152;23;20696;-78
2023/01/08 15:08:53;;;;;;;9.18;2.25;;;8.70;99.90;;;;;;5963550;24;20020;-77
2023/01/08 15:11:27;;;;;;;4.47;1.30;;;8.70;99.90;;;;;;6015655;23;20058;-77
2023/01/08 15:13:58;;;;;;;6.10;1.88;;;8.70;99.90;;;;;;6213677;23;20116;-76
2023/01/08 15:16:50;;;;;;;3.78;1.67;;;8.60;99.90;;;;;;6191040;23;20028;-76
2023/01/08 15:19:24;;;;;;;3.90;1.35;;;8.60;99.90;;;;;;6192579;23;20020;-76
2023/01/08 15:22:02;;;;;;;5.65;1.20;;;8.60;99.90;;;;;;6192866;23;20040;-76
2023/01/08 15:24:38;;;;;;;2.10;1.27;;;8.60;99.90;;;;;;6193330;23;20024;-77
2023/01/08 15:27:22;;;;;;;3.53;1.35;;;8.50;99.90;;;;;;6168304;23;20012;-76
2023/01/08 15:29:58;;;;;;;2.83;1.17;;;8.50;99.90;;;;;;6171684;23;20051;-76
2023/01/08 15:32:39;;;;;;;2.53;1.30;;;8.40;99.90;;;;;;6192678;23;20059;-77
2023/01/08 15:35:24;;;;;;;5.60;1.45;;;8.30;99.90;;;;;;6193296;23;20304;-75
2023/01/08 15:37:59;;;;;;;4.65;1.50;;;8.30;99.90;;;;;;6194382;23;20044;-78
2023/01/08 15:40:28;;;;;;;5.57;1.30;;;8.30;99.90;;;;;;6166317;23;20075;-75
2023/01/08 15:46:28;;;;;;;5.93;1.70;;;8.30;99.90;;;;;;5913248;24;20017;-76
2023/01/08 15:49:00;;;;;;;5.82;1.98;;;9.10;99.90;;;;;;6024974;23;20018;-77
2023/01/08 15:51:32;;;;;;;9.48;3.53;;;8.20;99.90;;;;;;6166371;23;20036;-77
2023/01/08 15:54:46;;;;;;;;;;;;;;;;;;;;;
2023/01/08 16:01:49;;;;;;;4.40;1.70;;;7.60;99.90;;;;;;6208315;23;20024;-77
2023/01/08 16:04:42;;;;;;;3.03;1.10;;;8.10;99.90;;;;;;6005544;23;20022;-76
2023/01/08 16:07:20;;;;;;;4.00;1.13;;;7.90;99.90;;;;;;6022747;23;20015;-76
2023/01/08 16:10:23;;;;;;;3.13;1.23;;;10.10;99.90;;;;;;6157632;23;20200;-77
2023/01/08 16:13:04;;;;;;;2.78;1.40;;;6.70;99.90;;;;;;6108863;23;20156;-77
2023/01/08 16:16:01;;;;;;;;;;;;;;;;;;;;;
2023/01/08 16:18:56;;;;;;;5.60;1.48;;;7.60;99.90;;;;;;6120713;23;20052;-77
2023/01/08 16:25:55;;;;;;;2.63;1.27;;;7.90;99.90;;;;;;6073920;23;20022;-77
2023/01/08 16:36:06;;;;;;;3.58;1.67;;;9.10;99.90;;;;;;6006389;23;20022;-78
2023/01/08 16:39:21;;;;;;;3.75;1.70;;;7.60;99.90;;;;;;6183821;23;20017;-77
2023/01/08 16:41:55;;;;;;;3.58;1.42;;;7.70;99.90;;;;;;6218061;23;20033;-75
2023/01/08 16:44:28;;;;;;;3.83;1.38;;;7.60;99.90;;;;;;6193178;23;20016;-75
2023/01/08 16:46:54;;;;;;;3.33;1.50;;;7.70;99.90;;;;;;6193976;23;20295;-77
2023/01/08 16:49:21;;;;;;;3.80;1.63;;;7.70;99.90;;;;;;6216310;23;20044;-75
2023/01/08 16:51:47;;;;;;;3.10;1.40;;;7.60;99.90;;;;;;6218090;23;20337;-74
2023/01/08 16:54:14;;;;;;;3.15;1.83;;;7.60;99.90;;;;;;6192626;23;20342;-76
2023/01/08 16:56:40;;;;;;;3.10;1.60;;;7.60;99.90;;;;;;6193702;23;20008;-75
2023/01/08 16:59:06;;;;;;;6.00;1.88;;;7.60;99.90;;;;;;6192890;23;20298;-75
2023/01/08 17:01:32;;;;;;;2.97;1.90;;;7.50;99.90;;;;;;6191716;23;20013;-74
2023/01/08 17:03:58;;;;;;;2.75;1.45;;;7.50;99.90;;;;;;6144637;23;20107;-76
2023/01/08 17:06:24;;;;;;;2.15;1.30;;;7.50;99.90;;;;;;6144183;23;20008;-74
2023/01/08 17:08:49;;;;;;;3.97;1.50;;;7.50;99.90;;;;;;6170586;23;20009;-74
2023/01/08 17:11:18;;;;;;;1.90;1.30;;;7.40;99.90;;;;;;6194689;23;20015;-74
2023/01/08 17:13:49;;;;;;;3.50;1.20;;;7.40;99.90;;;;;;6195089;23;20323;-75
2023/01/08 17:16:19;;;;;;;2.67;1.38;;;7.40;99.90;;;;;;6193033;23;20019;-76
2023/01/08 17:18:45;;;;;;;4.25;1.55;;;7.40;99.90;;;;;;6195833;23;20144;-76
2023/01/08 17:21:24;;;;;;;;;;;;;;;;;;;;;
2023/01/08 17:24:04;;;;;;;5.68;1.48;;;7.30;99.90;;;;;;6219986;23;20106;-73
2023/01/08 17:26:30;;;;;;;3.05;1.42;;;7.20;99.90;;;;;;6195067;23;20009;-76
2023/01/08 17:28:56;;;;;;;4.45;1.40;;;7.30;99.90;;;;;;6219871;23;20016;-75
2023/01/08 17:31:40;;;;;;;;;;;;;;;;;;;;;
2023/01/08 17:34:13;;;;;;;5.35;1.75;;;6.40;99.90;;;;;;6218342;23;20044;-76